Terminal Aerodrome Forecast
Issued by NWS Hastings, NE

Home | Current Version | Previous Version | Text Only | Print | Product List | Glossary On
Versions: 1 2 3 4 5 6 7 8 9 10 11 12 13 14 15 16 17 18 19 20 21 22 23 24 25 26 27 28 29 30 31 32 33 34 35
000
FTUS43 KGID 230213 AAF
TAFGRI
TAF AMD
KGRI 230213Z 2302/2324 VRB06KT 1/4SM FG SCT017 BKN050
     FM230300 VRB06KT P6SM SCT150
     FM230600 VRB06KT 3SM BR SCT150
     FM231400 17007KT P6SM FEW150=

USA.gov is the U.S. government's official web portal to all federal, state and local government web resources and services.